createdAt,value
2019-01-29T00:01:37.734Z,97219.02
2019-01-29T00:04:07.294Z,97226.06
2019-01-29T00:06:36.400Z,97223.31
2019-01-29T00:09:09.469Z,97227.14
2019-01-29T00:11:38.604Z,97229.17
2019-01-29T00:14:07.900Z,97231.44
2019-01-29T00:16:37.432Z,97233.22
2019-01-29T00:19:06.513Z,97237.05
2019-01-29T00:21:35.670Z,97237.41
2019-01-29T00:24:05.546Z,97235.85
2019-01-29T00:26:34.674Z,97234.14
2019-01-29T00:29:04.097Z,97237.61
2019-01-29T00:31:33.180Z,97239.52
2019-01-29T00:34:02.338Z,97249.66
2019-01-29T00:36:31.457Z,97244.65
2019-01-29T00:39:00.606Z,97245.48
2019-01-29T00:41:29.738Z,97261.11
2019-01-29T00:43:58.841Z,97250.49
2019-01-29T00:46:28.000Z,97249.89
2019-01-29T00:48:57.100Z,97257.05
2019-01-29T00:51:26.252Z,97258.72
2019-01-29T00:53:55.395Z,97259.69
2019-01-29T00:56:24.542Z,97266.72
2019-01-29T00:58:53.938Z,97275.67
2019-01-29T01:01:23.103Z,97275.67
2019-01-29T01:03:52.253Z,97276.87
2019-01-29T01:06:21.397Z,97281.64
2019-01-29T01:08:50.482Z,97290.59
2019-01-29T01:11:19.647Z,97291.41
2019-01-29T01:13:48.749Z,97297.03
2019-01-29T01:16:17.949Z,97297.63
2019-01-29T01:18:47.075Z,97305.97
2019-01-29T01:21:16.625Z,97312.30
2019-01-29T01:23:45.764Z,97312.89
2019-01-29T01:26:14.956Z,97314.09
2019-01-29T01:28:44.046Z,97317.91
2019-01-29T01:31:13.174Z,97324.23
2019-01-29T01:33:42.299Z,97318.86
2019-01-29T01:36:11.454Z,97326.03
2019-01-29T01:38:40.612Z,97327.69
2019-01-29T01:41:09.861Z,97330.92
2019-01-29T01:43:39.043Z,97337.00
2019-01-29T01:46:08.176Z,97339.98
2019-01-29T01:48:37.305Z,97332.94
2019-01-29T01:51:06.601Z,97343.31
2019-01-29T01:53:36.098Z,97353.34
2019-01-29T01:56:05.277Z,97342.73
2019-01-29T01:58:34.418Z,97350.63
2019-01-29T02:01:03.722Z,97352.99
2019-01-29T02:03:32.876Z,97362.06
2019-01-29T02:06:02.013Z,97353.83
2019-01-29T02:08:31.269Z,97358.48
2019-01-29T02:11:00.402Z,97365.88
2019-01-29T02:13:29.554Z,97371.37
2019-01-29T02:15:58.735Z,97371.48
2019-01-29T02:18:27.858Z,97369.70
2019-01-29T02:20:56.978Z,97375.65
2019-01-29T02:23:26.115Z,97382.57
2019-01-29T02:25:55.210Z,97384.02
2019-01-29T02:28:24.425Z,97381.52
2019-01-29T02:30:53.608Z,97381.66
2019-01-29T02:33:25.082Z,97382.47
2019-01-29T02:35:53.555Z,97391.30
2019-01-29T02:38:22.956Z,97388.69
2019-01-29T02:40:52.058Z,97394.58
2019-01-29T02:43:21.247Z,97384.45
2019-01-29T02:45:50.371Z,97394.71
2019-01-29T02:48:19.479Z,97396.91
2019-01-29T02:50:48.578Z,97391.97
2019-01-29T02:53:18.583Z,97397.95
2019-01-29T02:55:48.134Z,97386.73
2019-01-29T02:58:17.378Z,97387.45
2019-01-29T03:00:46.483Z,97391.78
2019-01-29T03:03:15.760Z,97385.70
2019-01-29T03:05:44.882Z,97393.81
2019-01-29T03:08:13.994Z,97397.75
2019-01-29T03:10:43.153Z,97388.68
2019-01-29T03:13:12.595Z,97391.78
2019-01-29T03:15:41.727Z,97411.09
2019-01-29T03:18:11.288Z,97408.14
2019-01-29T03:20:40.426Z,97410.66
2019-01-29T03:23:09.865Z,97414.36
2019-01-29T03:25:38.990Z,97408.52
2019-01-29T03:28:08.187Z,97409.48
2019-01-29T03:30:37.349Z,97415.57
2019-01-29T03:33:06.526Z,97416.98
2019-01-29T03:35:35.666Z,97416.74
2019-01-29T03:38:04.912Z,97426.91
2019-01-29T03:40:34.074Z,97430.61
2019-01-29T03:43:03.175Z,97438.95
2019-01-29T03:45:32.322Z,97431.07
2019-01-29T03:48:01.437Z,97441.48
2019-01-29T03:50:30.588Z,97439.21
2019-01-29T03:52:59.694Z,97441.28
2019-01-29T03:55:28.837Z,97446.25
2019-01-29T03:57:57.946Z,97447.20
2019-01-29T04:00:28.337Z,97444.34
2019-01-29T04:02:57.827Z,97450.78
2019-01-29T04:05:26.964Z,97457.36
2019-01-29T04:07:56.116Z,97459.73
2019-01-29T04:10:25.274Z,97455.81
2019-01-29T04:12:54.387Z,97462.13
2019-01-29T04:15:23.904Z,97456.27
2019-01-29T04:17:58.084Z,97461.77
2019-01-29T04:20:27.847Z,97474.20
2019-01-29T04:22:56.976Z,97474.48
2019-01-29T04:25:26.107Z,97478.73
2019-01-29T04:27:55.217Z,97478.01
2019-01-29T04:30:24.678Z,97478.62
2019-01-29T04:32:53.744Z,97470.36
2019-01-29T04:35:22.890Z,97477.41
2019-01-29T04:37:52.094Z,97476.83
2019-01-29T04:40:21.414Z,97487.45
2019-01-29T04:42:50.530Z,97495.22
2019-01-29T04:45:19.774Z,97486.86
2019-01-29T04:47:48.888Z,97495.69
2019-01-29T04:50:22.527Z,97501.17
2019-01-29T04:52:51.984Z,97502.02
2019-01-29T04:55:21.393Z,97506.12
2019-01-29T04:57:50.526Z,97502.17
2019-01-29T05:00:24.484Z,97506.79
2019-01-29T05:02:53.630Z,97503.08
2019-01-29T05:05:22.991Z,97497.23
2019-01-29T05:07:52.531Z,97490.89
2019-01-29T05:10:22.012Z,97485.16
2019-01-29T05:12:51.113Z,97486.14
2019-01-29T05:15:20.504Z,97490.72
2019-01-29T05:17:49.621Z,97490.59
2019-01-29T05:20:20.410Z,97492.70
2019-01-29T05:22:51.487Z,97494.55
2019-01-29T05:25:20.942Z,97499.44
2019-01-29T05:27:50.062Z,97498.38
2019-01-29T05:30:21.526Z,97500.58
2019-01-29T05:35:22.072Z,97502.84
2019-01-29T05:37:51.179Z,97503.55
2019-01-29T05:40:21.664Z,97501.16
2019-01-29T05:42:51.074Z,97508.78
2019-01-29T05:45:20.994Z,97519.79
2019-01-29T05:47:50.110Z,97515.84
2019-01-29T05:50:19.707Z,97514.90
2019-01-29T05:52:48.885Z,97517.16
2019-01-29T05:55:18.111Z,97520.02
2019-01-29T05:57:47.545Z,97514.08
2019-01-29T06:00:19.610Z,97512.75
2019-01-29T06:02:48.858Z,97522.17
2019-01-29T06:05:18.306Z,97520.73
2019-01-29T06:07:47.407Z,97527.44
2019-01-29T06:10:18.397Z,97523.19
2019-01-29T06:12:47.505Z,97518.11
2019-01-29T06:15:18.207Z,97514.31
2019-01-29T06:17:50.174Z,97526.22
2019-01-29T06:20:21.584Z,97523.25
2019-01-29T06:22:50.786Z,97524.77
2019-01-29T06:25:19.977Z,97531.47
2019-01-29T06:27:49.553Z,97537.36
2019-01-29T06:30:20.799Z,97541.30
2019-01-29T06:32:50.096Z,97539.40
2019-01-29T06:35:20.061Z,97542.61
2019-01-29T06:37:49.203Z,97547.50
2019-01-29T06:40:20.904Z,97547.50
2019-01-29T06:42:51.199Z,97546.36
2019-01-29T06:45:21.548Z,97556.11
2019-01-29T06:47:50.852Z,97555.64
2019-01-29T06:50:21.871Z,97553.71
2019-01-29T06:52:51.062Z,97553.41
2019-01-29T06:55:21.440Z,97560.50
2019-01-29T06:57:55.490Z,97558.73
2019-01-29T07:00:29.536Z,97558.27
2019-01-29T07:03:00.053Z,97557.66
2019-01-29T07:05:29.531Z,97560.58
2019-01-29T07:07:58.847Z,97559.88
2019-01-29T07:10:29.163Z,97566.09
2019-01-29T07:12:58.317Z,97569.25
2019-01-29T07:15:45.404Z,97568.10
2019-01-29T07:18:33.832Z,97572.41
2019-01-29T07:21:05.448Z,97575.17
2019-01-29T07:23:34.997Z,97580.28
2019-01-29T07:26:04.220Z,97576.95
2019-01-29T07:28:33.392Z,97581.38
2019-01-29T07:31:02.703Z,97586.29
2019-01-29T07:33:31.872Z,97585.45
2019-01-29T07:36:01.043Z,97586.77
2019-01-29T07:38:30.199Z,97590.92
2019-01-29T07:40:59.311Z,97587.66
2019-01-29T07:43:28.758Z,97588.92
2019-01-29T07:45:57.863Z,97590.34
2019-01-29T07:48:27.016Z,97592.75
2019-01-29T07:50:56.154Z,97598.70
2019-01-29T07:53:25.713Z,97598.70
2019-01-29T07:55:55.325Z,97593.34
2019-01-29T07:58:24.566Z,97598.89
2019-01-29T08:00:54.111Z,97602.25
2019-01-29T08:03:23.253Z,97601.47
2019-01-29T08:05:52.425Z,97602.20
2019-01-29T08:08:21.659Z,97607.81
2019-01-29T08:10:51.232Z,97611.56
2019-01-29T08:13:20.786Z,97611.58
2019-01-29T08:15:50.027Z,97614.44
2019-01-29T08:18:20.615Z,97610.72
2019-01-29T08:20:49.898Z,97611.81
2019-01-29T08:23:20.406Z,97616.27
2019-01-29T08:25:49.683Z,97615.07
2019-01-29T08:28:19.954Z,97613.76
2019-01-29T08:30:49.120Z,97610.59
2019-01-29T08:33:18.740Z,97614.06
2019-01-29T08:35:48.697Z,97620.49
2019-01-29T08:38:18.181Z,97626.02
2019-01-29T08:40:47.765Z,97629.11
2019-01-29T08:43:16.913Z,97633.05
2019-01-29T08:45:46.440Z,97625.77
2019-01-29T08:48:15.725Z,97630.44
2019-01-29T08:50:44.961Z,97623.96
2019-01-29T08:53:14.440Z,97624.34
2019-01-29T08:55:43.635Z,97630.06
2019-01-29T08:58:12.827Z,97633.05
2019-01-29T09:00:41.976Z,97633.31
2019-01-29T09:03:11.117Z,97637.27
2019-01-29T09:05:40.302Z,97640.84
2019-01-29T09:08:09.663Z,97640.50
2019-01-29T09:10:38.819Z,97632.91
2019-01-29T09:13:11.057Z,97634.02
2019-01-29T09:15:40.612Z,97635.03
2019-01-29T09:18:09.724Z,97629.59
2019-01-29T09:20:38.862Z,97639.65
2019-01-29T09:23:07.996Z,97637.13
2019-01-29T09:25:37.158Z,97635.88
2019-01-29T09:28:06.319Z,97633.00
2019-01-29T09:30:35.563Z,97628.22
2019-01-29T09:33:06.415Z,97630.72
2019-01-29T09:35:35.550Z,97626.31
2019-01-29T09:38:04.925Z,97624.20
2019-01-29T09:40:34.053Z,97623.91
2019-01-29T09:43:03.473Z,97619.66
2019-01-29T09:45:32.984Z,97629.10
2019-01-29T09:48:02.173Z,97627.37
2019-01-29T09:50:31.433Z,97623.84
2019-01-29T09:53:00.545Z,97629.34
2019-01-29T09:55:30.160Z,97634.36
2019-01-29T09:57:59.475Z,97639.28
2019-01-29T10:00:30.989Z,97634.98
2019-01-29T10:03:00.124Z,97640.70
2019-01-29T10:05:29.307Z,97632.93
2019-01-29T10:07:58.594Z,97630.50
2019-01-29T10:10:27.702Z,97635.22
2019-01-29T10:12:56.926Z,97631.31
2019-01-29T10:15:28.132Z,97625.09
2019-01-29T10:17:57.297Z,97623.19
2019-01-29T10:20:26.846Z,97621.28
2019-01-29T10:22:56.133Z,97619.95
2019-01-29T10:25:25.365Z,97626.77
2019-01-29T10:27:59.529Z,97617.32
2019-01-29T10:30:28.720Z,97614.57
2019-01-29T10:32:57.942Z,97614.05
2019-01-29T10:35:28.704Z,97613.02
2019-01-29T10:37:58.137Z,97605.97
2019-01-29T10:40:27.917Z,97606.59
2019-01-29T10:42:57.465Z,97607.67
2019-01-29T10:45:28.377Z,97599.74
2019-01-29T10:48:02.226Z,97600.14
2019-01-29T10:50:31.924Z,97601.66
2019-01-29T10:53:02.080Z,97600.94
2019-01-29T10:55:31.264Z,97594.27
2019-01-29T10:58:00.539Z,97596.19
2019-01-29T11:00:32.907Z,97592.48
2019-01-29T11:03:02.284Z,97590.08
2019-01-29T11:05:32.024Z,97596.19
2019-01-29T11:08:01.414Z,97589.58
2019-01-29T11:10:30.719Z,97593.64
2019-01-29T11:13:00.119Z,97590.41
2019-01-29T11:15:32.131Z,97592.20
2019-01-29T11:18:01.586Z,97587.30
2019-01-29T11:20:30.927Z,97580.75
2019-01-29T11:23:00.074Z,97578.12
2019-01-29T11:25:29.982Z,97582.42
2019-01-29T11:27:59.217Z,97579.80
2019-01-29T11:30:29.491Z,97577.91
2019-01-29T11:32:58.649Z,97574.42
2019-01-29T11:35:27.791Z,97570.11
2019-01-29T11:37:57.012Z,97570.00
2019-01-29T11:40:27.814Z,97567.11
2019-01-29T11:42:57.364Z,97571.05
2019-01-29T11:45:31.977Z,97561.61
2019-01-29T11:48:01.109Z,97564.13
2019-01-29T11:50:30.251Z,97558.02
2019-01-29T11:52:59.387Z,97557.55
2019-01-29T11:55:28.564Z,97548.95
2019-01-29T11:57:57.882Z,97560.91
2019-01-29T12:00:42.904Z,97555.16
2019-01-29T12:03:12.047Z,97549.75
2019-01-29T12:05:41.240Z,97553.38
2019-01-29T12:08:10.913Z,97546.97
2019-01-29T12:10:40.164Z,97551.53
2019-01-29T12:13:09.391Z,97543.01
2019-01-29T12:15:38.529Z,97541.45
2019-01-29T12:18:07.983Z,97541.34
2019-01-29T12:20:37.421Z,97536.31
2019-01-29T12:23:06.667Z,97532.35
2019-01-29T12:25:36.637Z,97522.14
2019-01-29T12:28:06.497Z,97529.81
2019-01-29T12:30:36.072Z,97523.58
2019-01-29T12:33:07.055Z,97534.63
2019-01-29T12:35:36.295Z,97535.36
2019-01-29T12:38:05.754Z,97524.39
2019-01-29T12:40:36.946Z,97523.41
2019-01-29T12:43:05.763Z,97515.55
2019-01-29T13:03:28.717Z,97505.91
2019-01-29T13:05:57.833Z,97506.77
2019-01-29T13:08:26.961Z,97504.14
2019-01-29T13:10:56.062Z,97506.06
2019-01-29T13:13:25.393Z,97500.20
2019-01-29T13:15:54.483Z,97499.70
2019-01-29T13:18:23.616Z,97493.37
2019-01-29T13:20:52.761Z,97489.88
2019-01-29T13:23:31.321Z,97486.66
2019-01-29T13:26:00.414Z,97487.13
2019-01-29T13:28:31.131Z,97484.17
2019-01-29T13:31:00.238Z,97474.11
2019-01-29T13:33:29.373Z,97474.44
2019-01-29T13:35:58.558Z,97477.09
2019-01-29T13:38:27.701Z,97474.09
2019-01-29T13:40:56.781Z,97475.16
2019-01-29T13:43:26.086Z,97478.14
2019-01-29T13:45:55.232Z,97472.66
2019-01-29T13:48:24.364Z,97467.72
2019-01-29T13:50:56.639Z,97464.48
2019-01-29T13:53:25.787Z,97464.00
2019-01-29T13:55:54.975Z,97462.78
2019-01-29T13:58:24.117Z,97459.89
2019-01-29T14:00:53.307Z,97458.64
2019-01-29T14:03:22.406Z,97462.61
2019-01-29T14:05:51.542Z,97457.34
2019-01-29T14:08:20.647Z,97461.92
2019-01-29T14:10:49.820Z,97460.84
2019-01-29T14:13:18.942Z,97458.58
2019-01-29T14:15:53.212Z,97455.46
2019-01-29T14:18:24.486Z,97457.49
2019-01-29T14:20:53.886Z,97455.72
2019-01-29T14:23:23.024Z,97454.03
2019-01-29T14:25:52.118Z,97457.28
2019-01-29T14:28:21.366Z,97456.08
2019-01-29T14:30:50.628Z,97455.23
2019-01-29T14:33:20.132Z,97453.69
2019-01-29T14:35:49.682Z,97453.91
2019-01-29T14:38:49.598Z,97447.56
2019-01-29T14:41:20.418Z,97446.73
2019-01-29T14:43:51.993Z,97434.91
2019-01-29T14:46:21.155Z,97435.25
2019-01-29T14:48:50.303Z,97432.26
2019-01-29T14:51:19.971Z,97436.59
2019-01-29T14:53:49.086Z,97436.20
2019-01-29T14:56:18.216Z,97435.50
2019-01-29T14:58:47.322Z,97433.95
2019-01-29T15:01:16.759Z,97434.05
2019-01-29T15:03:46.005Z,97421.98
2019-01-29T15:06:15.217Z,97419.59
2019-01-29T15:08:44.463Z,97422.82
2019-01-29T15:11:13.621Z,97426.16
2019-01-29T15:13:43.984Z,97411.77
2019-01-29T15:16:36.005Z,97415.63
2019-01-29T15:19:09.385Z,97415.37
2019-01-29T15:21:38.586Z,97415.24
2019-01-29T15:24:07.848Z,97418.96
2019-01-29T15:26:37.698Z,97417.78
2019-01-29T15:29:07.081Z,97415.05
2019-01-29T15:31:36.363Z,97413.59
2019-01-29T15:34:05.647Z,97406.66
2019-01-29T15:36:35.164Z,97408.46
2019-01-29T15:39:06.717Z,97403.69
2019-01-29T15:41:35.886Z,97411.92
2019-01-29T15:44:05.068Z,97407.85
2019-01-29T15:46:34.234Z,97405.95
2019-01-29T15:49:03.336Z,97413.95
2019-01-29T15:51:32.595Z,97411.69
2019-01-29T15:54:01.744Z,97404.39
2019-01-29T15:56:30.976Z,97405.59
2019-01-29T15:59:00.282Z,97404.39
2019-01-29T16:01:29.466Z,97405.47
2019-01-29T16:03:58.612Z,97411.94
2019-01-29T16:06:27.779Z,97403.09
2019-01-29T16:08:56.884Z,97405.45
2019-01-29T16:11:25.989Z,97405.09
2019-01-29T16:13:55.175Z,97405.22
2019-01-29T16:16:26.129Z,97401.93
2019-01-29T16:18:55.856Z,97405.23
2019-01-29T16:21:25.314Z,97393.33
2019-01-29T16:23:54.465Z,97395.60
2019-01-29T16:26:23.739Z,97396.11
2019-01-29T16:28:52.925Z,97394.41
2019-01-29T16:31:22.035Z,97390.09
2019-01-29T16:33:51.191Z,97389.22
2019-01-29T16:36:20.376Z,97384.56
2019-01-29T16:38:49.682Z,97388.09
2019-01-29T16:41:19.073Z,97381.78
2019-01-29T16:43:48.821Z,97373.61
2019-01-29T16:46:23.572Z,97374.86
2019-01-29T16:48:52.718Z,97375.27
2019-01-29T16:51:21.853Z,97372.67
2019-01-29T16:53:50.983Z,97373.96
2019-01-29T16:56:20.130Z,97375.66
2019-01-29T16:58:49.311Z,97373.73
2019-01-29T17:01:18.454Z,97370.36
2019-01-29T17:03:47.680Z,97369.90
2019-01-29T17:06:17.033Z,97371.42
2019-01-29T17:08:46.351Z,97364.67
2019-01-29T17:11:15.704Z,97363.31
2019-01-29T17:13:44.843Z,97360.94
2019-01-29T17:16:14.732Z,97356.77
2019-01-29T17:18:43.899Z,97366.63
2019-01-29T17:21:13.017Z,97359.86
2019-01-29T17:23:42.166Z,97363.13
2019-01-29T17:26:11.289Z,97361.09
2019-01-29T17:28:40.501Z,97365.64
2019-01-29T17:31:09.631Z,97355.09
2019-01-29T17:33:40.410Z,97355.75
2019-01-29T17:36:09.866Z,97354.25
2019-01-29T17:38:44.515Z,97352.86
2019-01-29T17:41:10.504Z,97341.84
2019-01-29T17:43:39.938Z,97336.02
2019-01-29T17:46:09.102Z,97334.14
2019-01-29T17:48:39.609Z,97331.77
2019-01-29T17:51:09.684Z,97333.80
2019-01-29T17:53:39.141Z,97326.41
2019-01-29T17:56:08.306Z,97324.41
2019-01-29T17:58:37.781Z,97321.31
2019-01-29T18:01:08.232Z,97314.03
2019-01-29T18:03:37.468Z,97313.55
2019-01-29T18:06:08.179Z,97316.64
2019-01-29T18:08:38.635Z,97318.62
2019-01-29T18:11:08.474Z,97318.72
2019-01-29T18:13:38.120Z,97317.81
2019-01-29T18:16:08.304Z,97317.13
2019-01-29T18:18:37.398Z,97311.46
2019-01-29T18:21:06.553Z,97314.34
2019-01-29T18:23:36.729Z,97309.21
2019-01-29T18:26:06.020Z,97311.00
2019-01-29T18:28:35.157Z,97308.73
2019-01-29T18:31:04.609Z,97301.01
2019-01-29T18:33:34.622Z,97309.34
2019-01-29T18:36:04.151Z,97304.60
2019-01-29T18:38:33.731Z,97309.38
2019-01-29T18:41:02.962Z,97300.19
2019-01-29T18:43:32.299Z,97298.05
2019-01-29T18:46:01.921Z,97294.52
2019-01-29T18:48:32.009Z,97289.16
2019-01-29T18:51:01.711Z,97285.70
2019-01-29T18:53:31.282Z,97286.07
2019-01-29T18:56:01.249Z,97285.59
2019-01-29T18:58:30.428Z,97287.31
2019-01-29T19:00:59.548Z,97288.26
2019-01-29T19:03:28.693Z,97283.12
2019-01-29T19:05:57.815Z,97283.39
2019-01-29T19:11:02.052Z,97271.81
2019-01-29T19:13:31.322Z,97267.58
2019-01-29T19:16:00.498Z,97270.19
2019-01-29T19:18:30.199Z,97271.50
2019-01-29T19:20:59.308Z,97266.96
2019-01-29T19:23:28.448Z,97263.17
2019-01-29T19:25:57.590Z,97261.11
2019-01-29T19:28:26.951Z,97259.05
2019-01-29T19:30:56.496Z,97256.79
2019-01-29T19:33:25.678Z,97256.03
2019-01-29T19:35:55.393Z,97259.44
2019-01-29T19:38:25.421Z,97254.08
2019-01-29T19:40:54.659Z,97254.81
2019-01-29T19:43:23.809Z,97245.66
2019-01-29T19:45:52.978Z,97250.13
2019-01-29T19:48:22.312Z,97245.75
2019-01-29T19:50:51.511Z,97237.77
2019-01-29T19:53:20.656Z,97244.22
2019-01-29T19:55:50.046Z,97238.47
2019-01-29T19:58:19.799Z,97231.25
2019-01-29T20:00:49.060Z,97241.66
2019-01-29T20:03:18.626Z,97244.47
2019-01-29T20:05:47.857Z,97237.52
2019-01-29T20:08:17.012Z,97238.69
2019-01-29T20:10:47.270Z,97232.49
2019-01-29T20:13:16.361Z,97234.77
2019-01-29T20:15:45.514Z,97225.59
2019-01-29T20:18:15.487Z,97221.25
2019-01-29T20:20:45.356Z,97228.05
2019-01-29T20:23:14.841Z,97222.80
2019-01-29T20:25:44.010Z,97220.02
2019-01-29T20:28:13.106Z,97217.88
2019-01-29T20:30:42.644Z,97217.31
2019-01-29T20:33:11.954Z,97215.70
2019-01-29T20:35:41.131Z,97217.14
2019-01-29T20:38:10.668Z,97211.55
2019-01-29T20:40:41.024Z,97210.84
2019-01-29T20:43:10.260Z,97205.22
2019-01-29T20:45:39.593Z,97209.88
2019-01-29T20:48:09.011Z,97201.95
2019-01-29T20:50:39.456Z,97199.52
2019-01-29T20:53:08.529Z,97193.52
2019-01-29T20:55:38.166Z,97188.97
2019-01-29T20:58:07.522Z,97189.87
2019-01-29T21:00:39.566Z,97188.72
2019-01-29T21:03:09.612Z,97189.06
2019-01-29T21:05:39.201Z,97193.03
2019-01-29T21:08:08.761Z,97191.70
2019-01-29T21:10:38.562Z,97190.06
2019-01-29T21:13:10.803Z,97181.92
2019-01-29T21:15:39.826Z,97175.59
2019-01-29T21:18:09.234Z,97178.22
2019-01-29T21:20:40.181Z,97175.98
2019-01-29T21:23:09.697Z,97170.85
2019-01-29T21:25:38.861Z,97163.22
2019-01-29T21:28:08.036Z,97159.88
2019-01-29T21:30:43.973Z,97159.74
2019-01-29T21:33:13.233Z,97162.84
2019-01-29T21:35:42.495Z,97162.62
2019-01-29T21:38:11.659Z,97157.05
2019-01-29T21:40:40.845Z,97154.29
2019-01-29T21:43:10.068Z,97152.27
2019-01-29T21:45:39.259Z,97154.28
2019-01-29T21:48:08.508Z,97145.98
2019-01-29T21:50:37.778Z,97152.25
2019-01-29T21:53:07.343Z,97150.61
2019-01-29T21:55:36.533Z,97150.14
2019-01-29T21:58:06.373Z,97153.51
2019-01-29T22:00:37.816Z,97145.50
2019-01-29T22:03:07.804Z,97142.30
2019-01-29T22:05:37.190Z,97146.66
2019-01-29T22:08:07.723Z,97146.70
2019-01-29T22:10:37.023Z,97138.27
2019-01-29T22:13:08.016Z,97139.11
2019-01-29T22:15:37.123Z,97136.54
2019-01-29T22:18:07.905Z,97143.08
2019-01-29T22:20:37.291Z,97141.42
2019-01-29T22:23:06.679Z,97133.14
2019-01-29T22:25:36.003Z,97126.31
2019-01-29T22:28:07.120Z,97131.47
2019-01-29T22:30:37.302Z,97122.45
2019-01-29T22:33:07.519Z,97124.98
2019-01-29T22:35:36.657Z,97112.52
2019-01-29T22:38:06.259Z,97120.59
2019-01-29T22:40:35.414Z,97119.34
2019-01-29T22:43:05.139Z,97120.78
2019-01-29T22:45:34.398Z,97110.91
2019-01-29T22:48:04.665Z,97108.39
2019-01-29T22:50:36.275Z,97118.10
2019-01-29T22:53:06.112Z,97111.67
2019-01-29T22:55:35.262Z,97104.52
2019-01-29T22:58:05.033Z,97105.62
2019-01-29T23:01:14.771Z,97110.46
2019-01-29T23:03:46.647Z,97108.09
2019-01-29T23:06:25.909Z,97115.13
2019-01-29T23:08:55.044Z,97105.34
2019-01-29T23:11:24.150Z,97097.61
2019-01-29T23:13:53.358Z,97090.52
2019-01-29T23:16:22.761Z,97089.95
2019-01-29T23:18:51.855Z,97084.27
2019-01-29T23:21:21.382Z,97078.47
2019-01-29T23:23:50.518Z,97071.55
2019-01-29T23:26:19.718Z,97066.95
2019-01-29T23:28:48.806Z,97068.48
2019-01-29T23:31:17.946Z,97062.72
2019-01-29T23:33:47.107Z,97056.88
2019-01-29T23:36:16.265Z,97056.27
2019-01-29T23:38:47.481Z,97049.78
2019-01-29T23:41:16.349Z,97049.95
2019-01-29T23:43:45.860Z,97041.55
2019-01-29T23:46:14.984Z,97043.80
2019-01-29T23:48:44.129Z,97045.17
2019-01-29T23:51:13.318Z,97039.92
2019-01-29T23:53:42.414Z,97042.69
2019-01-29T23:56:11.515Z,97038.81
2019-01-29T23:58:40.899Z,97030.66
